Kakushu Maru — JG5688 — position and weather

sailwx.info

Track history (hours):
 
Tides and Currents Weather Stations Pressure Air Temp Water Temp Dewpoint Dewpoint Depression Visibility Wind Speed Wind Dir Waves Ship Positions

Kakushu Maru

Last reported at 2018-Feb-20 20:56 UTC. Time now 2018-Feb-21 05:34 UTC.
Position N 41°59' E 141°21'.

Length 105 m; draft 4.9 m.

Type: Tanker. MMSI: 431101016.

Date/timePositionNaut miles runAvg speedWind from/ knotsBaromVisibWave heightAir tempDewpointWater temp
2018-Feb-20 20:56N 41°59' E 141°21'613.3
2018-Feb-20 20:30N 41°53' E 141°18'713.7
2018-Feb-20 20:00N 41°47' E 141°14'714.2
2018-Feb-20 19:30N 41°42' E 141°08'714.9
2018-Feb-20 19:01N 41°38' E 140°59'816.2
2018-Feb-20 18:31N 41°35' E 140°49'815.8
2018-Feb-20 18:00N 41°30' E 140°41'815.5
2018-Feb-20 17:31N 41°26' E 140°32'816.1
2018-Feb-20 17:01N 41°22' E 140°22'1415.8
2018-Feb-20 16:06N 41°21' E 140°03'114.9
2018-Feb-20 16:01N 41°21' E 140°02'713.5
2018-Feb-20 15:29N 41°27' E 139°57'1214.1
2018-Feb-20 14:37N 41°39' E 139°52'213.9
2018-Feb-20 14:29N 41°40' E 139°52'813.9
2018-Feb-20 13:56N 41°48' E 139°49'613.6
2018-Feb-20 13:29N 41°54' E 139°47'713.6
2018-Feb-20 12:59N 42°00' E 139°44'5 0.1
2018-Feb-18 14:36N 42°05' E 139°43'111.9
2018-Feb-18 14:30N 42°04' E 139°43'611.7
2018-Feb-18 14:00N 41°58' E 139°45'611.5
2018-Feb-18 13:31N 41°52' E 139°46'711.4
2018-Feb-18 12:56N 41°46' E 139°48'511.6
2018-Feb-18 12:31N 41°41' E 139°51'1012.1
2018-Feb-18 11:43N 41°32' E 139°55'311.7
2018-Feb-18 11:27N 41°29' E 139°56'511.8
2018-Feb-18 11:00N 41°24' E 139°58'1210.7
2018-Feb-18 09:52N 41°22' E 140°13'412.2
2018-Feb-18 09:30N 41°24' E 140°19'713.9
2018-Feb-18 09:00N 41°28' E 140°25'713.6
2018-Feb-18 08:31N 41°34' E 140°30'510.4
2018-Feb-18 08:00N 41°39' E 140°32'0 0.3
2018-Feb-18 07:27N 41°39' E 140°32'0 0.1
2018-Feb-18 07:00N 41°39' E 140°32'0 0.1
2018-Feb-18 06:30N 41°39' E 140°33'0 0.0
2018-Feb-18 05:56N 41°39' E 140°33'0 0.1
2018-Feb-18 05:28N 41°39' E 140°33'0 0.0
2018-Feb-18 04:58N 41°39' E 140°33'0 0.0
2018-Feb-18 04:22N 41°39' E 140°33'0 0.0
2018-Feb-18 03:56N 41°39' E 140°33'0 0.1
2018-Feb-18 03:29N 41°39' E 140°33'0 0.0
2018-Feb-18 02:59N 41°39' E 140°33'0 0.1
2018-Feb-18 02:29N 41°39' E 140°32'0 0.0
2018-Feb-18 02:00N 41°39' E 140°32'0 0.0
2018-Feb-18 01:28N 41°39' E 140°32'0 0.1
2018-Feb-18 01:00N 41°39' E 140°32'0 0.1
2018-Feb-18 00:30N 41°39' E 140°32'0 0.0
2018-Feb-18 00:00N 41°39' E 140°32'0 0.1
2018-Feb-17 23:30N 41°39' E 140°33'0 0.1
2018-Feb-17 23:00N 41°39' E 140°32'0 0.0
2018-Feb-17 22:30N 41°39' E 140°32'0 0.0
2018-Feb-17 22:00N 41°39' E 140°32'0 0.0
2018-Feb-17 21:29N 41°39' E 140°32'0 0.0
2018-Feb-17 21:00N 41°39' E 140°32'0 0.3
2018-Feb-17 20:30N 41°39' E 140°32'4 8.4
2018-Feb-17 20:00N 41°40' E 140°38'712.9
2018-Feb-17 19:30N 41°40' E 140°47'612.2
2018-Feb-17 19:00N 41°41' E 140°55'510.4
2018-Feb-17 18:30N 41°42' E 141°02'714.3
2018-Feb-17 18:00N 41°45' E 141°10'713.5
2018-Feb-17 17:27N 41°50' E 141°17'5 0.3
2018-Feb-17 02:09N 41°55' E 141°17'314.3
2018-Feb-17 01:57N 41°53' E 141°16'714.5
2018-Feb-17 01:30N 41°46' E 141°13'714.6
2018-Feb-17 01:00N 41°42' E 141°06'815.0
2018-Feb-17 00:30N 41°37' E 140°58'815.7
2018-Feb-17 00:01N 41°34' E 140°48'815.3
2018-Feb-16 23:30N 41°30' E 140°39'815.3
2018-Feb-16 23:00N 41°26' E 140°30'816.7
2018-Feb-16 22:30N 41°22' E 140°21'1215.8
2018-Feb-16 21:45N 41°21' E 140°05'416.1
2018-Feb-16 21:30N 41°23' E 140°00'713.9
2018-Feb-16 21:01N 41°29' E 139°56'1013.2
2018-Feb-16 20:14N 41°39' E 139°53'312.3
2018-Feb-16 20:01N 41°41' E 139°52'713.2
2018-Feb-16 19:30N 41°48' E 139°49'713.1
2018-Feb-16 18:56N 41°55' E 139°47'512.6
2018-Feb-16 18:30N 42°00' E 139°45'7 0.2
2018-Feb-15 08:13N 42°04' E 139°37'311.2
2018-Feb-15 07:59N 42°01' E 139°37'810.6
2018-Feb-15 07:12N 41°53' E 139°38'11 9.6
2018-Feb-15 06:06N 41°43' E 139°42'1 9.6
2018-Feb-15 05:59N 41°42' E 139°42'5 9.6
2018-Feb-15 05:31N 41°38' E 139°45'6 9.4
2018-Feb-15 04:51N 41°33' E 139°50'3 9.3
2018-Feb-15 04:30N 41°30' E 139°52'19 9.7
2018-Feb-15 02:33N 41°22' E 140°15'1 8.7
2018-Feb-15 02:28N 41°22' E 140°16'511.4
2018-Feb-15 02:00N 41°26' E 140°21'611.2
2018-Feb-15 01:30N 41°30' E 140°27'611.5
2018-Feb-15 01:00N 41°35' E 140°30'4 8.1
2018-Feb-15 00:30N 41°39' E 140°32'0 0.0
2018-Feb-14 22:39N 41°39' E 140°32'0 0.1
2018-Feb-14 22:06N 41°39' E 140°32'0 0.1
2018-Feb-14 21:51N 41°39' E 140°32'0 0.0
2018-Feb-14 21:21N 41°39' E 140°32'0 0.0
2018-Feb-14 20:48N 41°39' E 140°32'0 0.0
2018-Feb-14 20:09N 41°39' E 140°32'0 0.0
2018-Feb-14 19:54N 41°39' E 140°32'0 0.0
2018-Feb-14 19:15N 41°39' E 140°32'0 0.0
2018-Feb-14 18:54N 41°39' E 140°32'0 0.0
2018-Feb-14 18:30N 41°39' E 140°32'0 0.0
2018-Feb-14 17:39N 41°39' E 140°32'0 0.1
2018-Feb-14 17:30N 41°39' E 140°32'0 0.0
2018-Feb-14 17:00N 41°39' E 140°32'0 0.0
2018-Feb-14 16:21N 41°39' E 140°32'0 0.0
2018-Feb-14 16:00N 41°39' E 140°32'0 0.0
2018-Feb-14 15:27N 41°39' E 140°32'0 0.1
2018-Feb-14 14:57N 41°39' E 140°32'0 0.1
2018-Feb-14 14:12N 41°39' E 140°32'0 0.0
2018-Feb-14 14:00N 41°39' E 140°32'0 0.0
2018-Feb-14 13:24N 41°39' E 140°32'0 0.0
2018-Feb-14 13:00N 41°39' E 140°32'0 0.0
2018-Feb-14 12:27N 41°39' E 140°32'0 0.1
2018-Feb-14 12:00N 41°39' E 140°32'0 0.1
2018-Feb-14 11:27N 41°39' E 140°32'0 0.0
2018-Feb-14 10:54N 41°39' E 140°32'0 0.1
2018-Feb-14 10:30N 41°39' E 140°32'0 0.1
2018-Feb-14 10:00N 41°39' E 140°32'0 0.0
2018-Feb-14 09:30N 41°39' E 140°32'0 0.0
2018-Feb-14 09:00N 41°39' E 140°32'0 0.2
2018-Feb-14 08:30N 41°39' E 140°32'0 0.0
2018-Feb-14 07:54N 41°39' E 140°32'0 0.0
2018-Feb-14 07:27N 41°39' E 140°32'0 0.0
2018-Feb-14 06:57N 41°39' E 140°32'0 0.1
2018-Feb-14 06:30N 41°39' E 140°32'0 0.1
2018-Feb-14 05:48N 41°39' E 140°32'0 0.0
2018-Feb-14 05:30N 41°39' E 140°32'0 0.0
2018-Feb-14 05:00N 41°39' E 140°32'0 0.0
2018-Feb-14 04:27N 41°39' E 140°32'0 0.1
2018-Feb-14 04:00N 41°39' E 140°32'0 0.0
2018-Feb-14 03:30N 41°39' E 140°32'0 0.0
2018-Feb-14 03:00N 41°39' E 140°32'0 0.0
2018-Feb-14 02:18N 41°39' E 140°32'0 0.1
2018-Feb-14 01:57N 41°39' E 140°32'0 0.0
2018-Feb-14 01:30N 41°39' E 140°32'0 0.1
2018-Feb-14 00:57N 41°39' E 140°32'0 0.0
2018-Feb-14 00:30N 41°39' E 140°32'0 0.0
2018-Feb-13 23:57N 41°39' E 140°32'0 0.0
2018-Feb-13 23:30N 41°39' E 140°32'0 0.0
2018-Feb-13 23:00N 41°39' E 140°32'0 0.0
2018-Feb-13 22:27N 41°39' E 140°32'0 0.0
2018-Feb-13 22:00N 41°39' E 140°32'0 0.0
2018-Feb-13 21:30N 41°39' E 140°32'0 0.0
2018-Feb-13 21:00N 41°39' E 140°32'0 0.0
2018-Feb-13 20:30N 41°39' E 140°32'0 0.0
2018-Feb-13 19:54N 41°39' E 140°32'0 0.0
2018-Feb-13 19:24N 41°39' E 140°32'0 0.0
2018-Feb-13 18:57N 41°39' E 140°32'0 0.0
2018-Feb-13 18:30N 41°39' E 140°32'0 0.0
2018-Feb-13 17:57N 41°39' E 140°32'0 0.0
2018-Feb-13 17:12N 41°39' E 140°32'0 0.0
2018-Feb-13 16:42N 41°39' E 140°32'0 0.0
2018-Feb-13 16:30N 41°39' E 140°32'0 0.0
2018-Feb-13 15:54N 41°39' E 140°32'0 0.0
2018-Feb-13 15:27N 41°39' E 140°32'0 0.0
2018-Feb-13 15:00N 41°39' E 140°32'0 0.0
2018-Feb-13 14:30N 41°39' E 140°32'0 0.0
2018-Feb-13 14:00N 41°39' E 140°32'0 0.0
2018-Feb-13 13:30N 41°39' E 140°32'0 0.0
2018-Feb-13 13:00N 41°39' E 140°32'0 0.0
2018-Feb-13 12:30N 41°39' E 140°32'0 0.0
2018-Feb-13 11:54N 41°39' E 140°32'0 0.0
2018-Feb-13 11:27N 41°39' E 140°32'0 0.0
2018-Feb-13 11:00N 41°39' E 140°32'0 0.0
2018-Feb-13 10:27N 41°39' E 140°32'0 0.0
2018-Feb-13 09:57N 41°39' E 140°32'0 0.1
2018-Feb-13 09:30N 41°39' E 140°32'0 0.0
2018-Feb-13 09:00N 41°39' E 140°32'0 0.0
2018-Feb-13 08:30N 41°39' E 140°32'0 0.0
2018-Feb-13 08:00N 41°39' E 140°32'0 0.0
2018-Feb-13 07:30N 41°39' E 140°32'0 0.0
2018-Feb-13 07:00N 41°39' E 140°32'0 0.0
2018-Feb-13 06:30N 41°39' E 140°32'0 0.0
2018-Feb-13 05:57N 41°39' E 140°32'0 0.1
2018-Feb-13 05:21N 41°39' E 140°32'0 0.1
2018-Feb-13 04:57N 41°39' E 140°32'0 0.0
2018-Feb-13 04:27N 41°39' E 140°32'0 0.0
2018-Feb-13 03:54N 41°39' E 140°32'0 0.0
2018-Feb-13 03:30N 41°39' E 140°32'0 0.0
2018-Feb-13 03:00N 41°39' E 140°32'0 0.1
2018-Feb-13 02:24N 41°39' E 140°32'0 0.0
2018-Feb-13 02:00N 41°39' E 140°32'0 0.0
2018-Feb-13 01:24N 41°39' E 140°32'0 0.0
2018-Feb-13 00:57N 41°39' E 140°32'0 0.0
2018-Feb-13 00:29N 41°39' E 140°32'0 0.0
2018-Feb-13 00:00N 41°39' E 140°32'0 0.0
2018-Feb-12 23:29N 41°39' E 140°32'0 0.0
2018-Feb-12 23:00N 41°39' E 140°32'0 0.0
2018-Feb-12 22:29N 41°39' E 140°32'0 0.0
2018-Feb-12 21:59N 41°39' E 140°32'0 0.0
2018-Feb-12 21:27N 41°39' E 140°32'0 0.0
2018-Feb-12 20:59N 41°39' E 140°32'0 0.0
2018-Feb-12 20:28N 41°39' E 140°32'0 0.0
2018-Feb-12 20:00N 41°39' E 140°32'0 0.0
2018-Feb-12 19:30N 41°39' E 140°32'0 0.0
2018-Feb-12 18:58N 41°39' E 140°32'0 0.0
2018-Feb-12 18:30N 41°39' E 140°32'0 0.0
2018-Feb-12 18:00N 41°39' E 140°32'0 0.0
2018-Feb-12 17:30N 41°39' E 140°32'0 0.0
2018-Feb-12 17:00N 41°39' E 140°32'0 0.0
2018-Feb-12 16:30N 41°39' E 140°32'0 0.0
2018-Feb-12 15:59N 41°39' E 140°32'0 0.0
2018-Feb-12 15:30N 41°39' E 140°32'0 0.0
2018-Feb-12 15:00N 41°39' E 140°32'0 0.0
2018-Feb-12 14:30N 41°39' E 140°32'0 0.1
2018-Feb-12 14:00N 41°39' E 140°32'0 0.0
2018-Feb-12 13:29N 41°39' E 140°32'0 0.1
2018-Feb-12 13:01N 41°39' E 140°32'0 0.0
2018-Feb-12 12:29N 41°39' E 140°32'0 0.0
2018-Feb-12 12:00N 41°39' E 140°32'0 0.0
2018-Feb-12 11:30N 41°39' E 140°32'0 0.0
2018-Feb-12 11:00N 41°39' E 140°32'0 0.0
2018-Feb-12 10:29N 41°39' E 140°32'0 0.0
2018-Feb-12 10:00N 41°39' E 140°32'0 0.0
2018-Feb-12 09:27N 41°39' E 140°32'0 0.1
2018-Feb-12 08:54N 41°39' E 140°32'0 0.0
2018-Feb-12 08:29N 41°39' E 140°32'0 0.0
2018-Feb-12 07:56N 41°39' E 140°32'0 0.0
2018-Feb-12 07:19N 41°39' E 140°32'0 0.0
2018-Feb-12 06:59N 41°39' E 140°32'0 0.0
2018-Feb-12 06:15N 41°39' E 140°32'0 0.0
2018-Feb-12 05:50N 41°39' E 140°32'0 0.0
2018-Feb-12 05:30N 41°39' E 140°32'0 0.0
2018-Feb-12 04:51N 41°39' E 140°32'0 0.0
2018-Feb-12 04:12N 41°39' E 140°32'0 0.0
2018-Feb-12 03:49N 41°39' E 140°32'0 0.1
2018-Feb-12 03:26N 41°39' E 140°32'0 0.0
2018-Feb-12 02:58N 41°39' E 140°32'0 0.0
2018-Feb-12 02:29N 41°39' E 140°32'0 0.0
2018-Feb-12 01:43N 41°39' E 140°32'0 0.0
2018-Feb-12 01:30N 41°39' E 140°32'0 0.0
2018-Feb-12 00:58N 41°39' E 140°32'0 0.0
2018-Feb-12 00:28N 41°39' E 140°32'0 0.0
2018-Feb-11 23:53N 41°39' E 140°32'0 0.1
2018-Feb-11 23:29N 41°39' E 140°32'0 0.1
2018-Feb-11 23:00N 41°39' E 140°32'0 0.0
2018-Feb-11 22:30N 41°39' E 140°32'0 0.0
2018-Feb-11 21:56N 41°39' E 140°32'0 0.0
2018-Feb-11 21:25N 41°39' E 140°32'0 0.0
2018-Feb-11 21:00N 41°39' E 140°32'0 0.0
2018-Feb-11 20:30N 41°39' E 140°32'2 4.9
2018-Feb-11 20:00N 41°39' E 140°35'612.0
2018-Feb-11 19:30N 41°39' E 140°43'612.3
2018-Feb-11 19:00N 41°40' E 140°51'510.6
2018-Feb-11 18:31N 41°40' E 140°58'611.1
2018-Feb-11 18:00N 41°42' E 141°05'713.5
2018-Feb-11 17:30N 41°46' E 141°13'15 1.0
2018-Feb-11 02:19N 41°59' E 141°20'413.8
2018-Feb-11 02:00N 41°55' E 141°18'713.8
2018-Feb-11 01:30N 41°49' E 141°15'712.9
2018-Feb-11 01:00N 41°44' E 141°09'713.7
2018-Feb-11 00:30N 41°41' E 141°02'714.8
2018-Feb-11 00:00N 41°37' E 140°53'714.8
2018-Feb-10 23:30N 41°33' E 140°45'815.2
2018-Feb-10 23:00N 41°28' E 140°37'815.5
2018-Feb-10 22:30N 41°24' E 140°28'  
Track history (hours):
 
Tides and Currents Weather Stations Pressure Air Temp Water Temp Dewpoint Dewpoint Depression Visibility Wind Speed Wind Dir Waves Ship Positions

Kakushu Maru

Last reported at 2018-Feb-20 20:56 UTC. Time now 2018-Feb-21 05:34 UTC.
Position N 41°59' E 141°21'.

Length 105 m; draft 4.9 m.

Type: Tanker. MMSI: 431101016.

Date/timePositionNaut miles runAvg speedWind from/ knotsBaromVisibWave heightAir tempDewpointWater temp
2018-Feb-20 20:56N 41°59' E 141°21'613.3
2018-Feb-20 20:30N 41°53' E 141°18'713.7
2018-Feb-20 20:00N 41°47' E 141°14'714.2
2018-Feb-20 19:30N 41°42' E 141°08'714.9
2018-Feb-20 19:01N 41°38' E 140°59'816.2
2018-Feb-20 18:31N 41°35' E 140°49'815.8
2018-Feb-20 18:00N 41°30' E 140°41'815.5
2018-Feb-20 17:31N 41°26' E 140°32'816.1
2018-Feb-20 17:01N 41°22' E 140°22'1415.8
2018-Feb-20 16:06N 41°21' E 140°03'114.9
2018-Feb-20 16:01N 41°21' E 140°02'713.5
2018-Feb-20 15:29N 41°27' E 139°57'1214.1
2018-Feb-20 14:37N 41°39' E 139°52'213.9
2018-Feb-20 14:29N 41°40' E 139°52'813.9
2018-Feb-20 13:56N 41°48' E 139°49'613.6
2018-Feb-20 13:29N 41°54' E 139°47'713.6
2018-Feb-20 12:59N 42°00' E 139°44'5 0.1
2018-Feb-18 14:36N 42°05' E 139°43'111.9
2018-Feb-18 14:30N 42°04' E 139°43'611.7
2018-Feb-18 14:00N 41°58' E 139°45'611.5
2018-Feb-18 13:31N 41°52' E 139°46'711.4
2018-Feb-18 12:56N 41°46' E 139°48'511.6
2018-Feb-18 12:31N 41°41' E 139°51'1012.1
2018-Feb-18 11:43N 41°32' E 139°55'311.7
2018-Feb-18 11:27N 41°29' E 139°56'511.8
2018-Feb-18 11:00N 41°24' E 139°58'1210.7
2018-Feb-18 09:52N 41°22' E 140°13'412.2
2018-Feb-18 09:30N 41°24' E 140°19'713.9
2018-Feb-18 09:00N 41°28' E 140°25'713.6
2018-Feb-18 08:31N 41°34' E 140°30'510.4
2018-Feb-18 08:00N 41°39' E 140°32'0 0.3
2018-Feb-18 07:27N 41°39' E 140°32'0 0.1
2018-Feb-18 07:00N 41°39' E 140°32'0 0.1
2018-Feb-18 06:30N 41°39' E 140°33'0 0.0
2018-Feb-18 05:56N 41°39' E 140°33'0 0.1
2018-Feb-18 05:28N 41°39' E 140°33'0 0.0
2018-Feb-18 04:58N 41°39' E 140°33'0 0.0
2018-Feb-18 04:22N 41°39' E 140°33'0 0.0
2018-Feb-18 03:56N 41°39' E 140°33'0 0.1
2018-Feb-18 03:29N 41°39' E 140°33'0 0.0
2018-Feb-18 02:59N 41°39' E 140°33'0 0.1
2018-Feb-18 02:29N 41°39' E 140°32'0 0.0
2018-Feb-18 02:00N 41°39' E 140°32'0 0.0
2018-Feb-18 01:28N 41°39' E 140°32'0 0.1
2018-Feb-18 01:00N 41°39' E 140°32'0 0.1
2018-Feb-18 00:30N 41°39' E 140°32'0 0.0
2018-Feb-18 00:00N 41°39' E 140°32'0 0.1
2018-Feb-17 23:30N 41°39' E 140°33'0 0.1
2018-Feb-17 23:00N 41°39' E 140°32'0 0.0
2018-Feb-17 22:30N 41°39' E 140°32'0 0.0
2018-Feb-17 22:00N 41°39' E 140°32'0 0.0
2018-Feb-17 21:29N 41°39' E 140°32'0 0.0
2018-Feb-17 21:00N 41°39' E 140°32'0 0.3
2018-Feb-17 20:30N 41°39' E 140°32'4 8.4
2018-Feb-17 20:00N 41°40' E 140°38'712.9
2018-Feb-17 19:30N 41°40' E 140°47'612.2
2018-Feb-17 19:00N 41°41' E 140°55'510.4
2018-Feb-17 18:30N 41°42' E 141°02'714.3
2018-Feb-17 18:00N 41°45' E 141°10'713.5
2018-Feb-17 17:27N 41°50' E 141°17'5 0.3
2018-Feb-17 02:09N 41°55' E 141°17'314.3
2018-Feb-17 01:57N 41°53' E 141°16'714.5
2018-Feb-17 01:30N 41°46' E 141°13'714.6
2018-Feb-17 01:00N 41°42' E 141°06'815.0
2018-Feb-17 00:30N 41°37' E 140°58'815.7
2018-Feb-17 00:01N 41°34' E 140°48'815.3
2018-Feb-16 23:30N 41°30' E 140°39'815.3
2018-Feb-16 23:00N 41°26' E 140°30'816.7
2018-Feb-16 22:30N 41°22' E 140°21'1215.8
2018-Feb-16 21:45N 41°21' E 140°05'416.1
2018-Feb-16 21:30N 41°23' E 140°00'713.9
2018-Feb-16 21:01N 41°29' E 139°56'1013.2
2018-Feb-16 20:14N 41°39' E 139°53'312.3
2018-Feb-16 20:01N 41°41' E 139°52'713.2
2018-Feb-16 19:30N 41°48' E 139°49'713.1
2018-Feb-16 18:56N 41°55' E 139°47'512.6
2018-Feb-16 18:30N 42°00' E 139°45'7 0.2
2018-Feb-15 08:13N 42°04' E 139°37'311.2
2018-Feb-15 07:59N 42°01' E 139°37'810.6
2018-Feb-15 07:12N 41°53' E 139°38'11 9.6
2018-Feb-15 06:06N 41°43' E 139°42'1 9.6
2018-Feb-15 05:59N 41°42' E 139°42'5 9.6
2018-Feb-15 05:31N 41°38' E 139°45'6 9.4
2018-Feb-15 04:51N 41°33' E 139°50'3 9.3
2018-Feb-15 04:30N 41°30' E 139°52'19 9.7
2018-Feb-15 02:33N 41°22' E 140°15'1 8.7
2018-Feb-15 02:28N 41°22' E 140°16'511.4
2018-Feb-15 02:00N 41°26' E 140°21'611.2
2018-Feb-15 01:30N 41°30' E 140°27'611.5
2018-Feb-15 01:00N 41°35' E 140°30'4 8.1
2018-Feb-15 00:30N 41°39' E 140°32'0 0.0
2018-Feb-14 22:39N 41°39' E 140°32'0 0.1
2018-Feb-14 22:06N 41°39' E 140°32'0 0.1
2018-Feb-14 21:51N 41°39' E 140°32'0 0.0
2018-Feb-14 21:21N 41°39' E 140°32'0 0.0
2018-Feb-14 20:48N 41°39' E 140°32'0 0.0
2018-Feb-14 20:09N 41°39' E 140°32'0 0.0
2018-Feb-14 19:54N 41°39' E 140°32'0 0.0
2018-Feb-14 19:15N 41°39' E 140°32'0 0.0
2018-Feb-14 18:54N 41°39' E 140°32'0 0.0
2018-Feb-14 18:30N 41°39' E 140°32'0 0.0
2018-Feb-14 17:39N 41°39' E 140°32'0 0.1
2018-Feb-14 17:30N 41°39' E 140°32'0 0.0
2018-Feb-14 17:00N 41°39' E 140°32'0 0.0
2018-Feb-14 16:21N 41°39' E 140°32'0 0.0
2018-Feb-14 16:00N 41°39' E 140°32'0 0.0
2018-Feb-14 15:27N 41°39' E 140°32'0 0.1
2018-Feb-14 14:57N 41°39' E 140°32'0 0.1
2018-Feb-14 14:12N 41°39' E 140°32'0 0.0
2018-Feb-14 14:00N 41°39' E 140°32'0 0.0
2018-Feb-14 13:24N 41°39' E 140°32'0 0.0
2018-Feb-14 13:00N 41°39' E 140°32'0 0.0
2018-Feb-14 12:27N 41°39' E 140°32'0 0.1
2018-Feb-14 12:00N 41°39' E 140°32'0 0.1
2018-Feb-14 11:27N 41°39' E 140°32'0 0.0
2018-Feb-14 10:54N 41°39' E 140°32'0 0.1
2018-Feb-14 10:30N 41°39' E 140°32'0 0.1
2018-Feb-14 10:00N 41°39' E 140°32'0 0.0
2018-Feb-14 09:30N 41°39' E 140°32'0 0.0
2018-Feb-14 09:00N 41°39' E 140°32'0 0.2
2018-Feb-14 08:30N 41°39' E 140°32'0 0.0
2018-Feb-14 07:54N 41°39' E 140°32'0 0.0
2018-Feb-14 07:27N 41°39' E 140°32'0 0.0
2018-Feb-14 06:57N 41°39' E 140°32'0 0.1
2018-Feb-14 06:30N 41°39' E 140°32'0 0.1
2018-Feb-14 05:48N 41°39' E 140°32'0 0.0
2018-Feb-14 05:30N 41°39' E 140°32'0 0.0
2018-Feb-14 05:00N 41°39' E 140°32'0 0.0
2018-Feb-14 04:27N 41°39' E 140°32'0 0.1
2018-Feb-14 04:00N 41°39' E 140°32'0 0.0
2018-Feb-14 03:30N 41°39' E 140°32'0 0.0
2018-Feb-14 03:00N 41°39' E 140°32'0 0.0
2018-Feb-14 02:18N 41°39' E 140°32'0 0.1
2018-Feb-14 01:57N 41°39' E 140°32'0 0.0
2018-Feb-14 01:30N 41°39' E 140°32'0 0.1
2018-Feb-14 00:57N 41°39' E 140°32'0 0.0
2018-Feb-14 00:30N 41°39' E 140°32'0 0.0
2018-Feb-13 23:57N 41°39' E 140°32'0 0.0
2018-Feb-13 23:30N 41°39' E 140°32'0 0.0
2018-Feb-13 23:00N 41°39' E 140°32'0 0.0
2018-Feb-13 22:27N 41°39' E 140°32'0 0.0
2018-Feb-13 22:00N 41°39' E 140°32'0 0.0
2018-Feb-13 21:30N 41°39' E 140°32'0 0.0
2018-Feb-13 21:00N 41°39' E 140°32'0 0.0
2018-Feb-13 20:30N 41°39' E 140°32'0 0.0
2018-Feb-13 19:54N 41°39' E 140°32'0 0.0
2018-Feb-13 19:24N 41°39' E 140°32'0 0.0
2018-Feb-13 18:57N 41°39' E 140°32'0 0.0
2018-Feb-13 18:30N 41°39' E 140°32'0 0.0
2018-Feb-13 17:57N 41°39' E 140°32'0 0.0
2018-Feb-13 17:12N 41°39' E 140°32'0 0.0
2018-Feb-13 16:42N 41°39' E 140°32'0 0.0
2018-Feb-13 16:30N 41°39' E 140°32'0 0.0
2018-Feb-13 15:54N 41°39' E 140°32'0 0.0
2018-Feb-13 15:27N 41°39' E 140°32'0 0.0
2018-Feb-13 15:00N 41°39' E 140°32'0 0.0
2018-Feb-13 14:30N 41°39' E 140°32'0 0.0
2018-Feb-13 14:00N 41°39' E 140°32'0 0.0
2018-Feb-13 13:30N 41°39' E 140°32'0 0.0
2018-Feb-13 13:00N 41°39' E 140°32'0 0.0
2018-Feb-13 12:30N 41°39' E 140°32'0 0.0
2018-Feb-13 11:54N 41°39' E 140°32'0 0.0
2018-Feb-13 11:27N 41°39' E 140°32'0 0.0
2018-Feb-13 11:00N 41°39' E 140°32'0 0.0
2018-Feb-13 10:27N 41°39' E 140°32'0 0.0
2018-Feb-13 09:57N 41°39' E 140°32'0 0.1
2018-Feb-13 09:30N 41°39' E 140°32'0 0.0
2018-Feb-13 09:00N 41°39' E 140°32'0 0.0
2018-Feb-13 08:30N 41°39' E 140°32'0 0.0
2018-Feb-13 08:00N 41°39' E 140°32'0 0.0
2018-Feb-13 07:30N 41°39' E 140°32'0 0.0
2018-Feb-13 07:00N 41°39' E 140°32'0 0.0
2018-Feb-13 06:30N 41°39' E 140°32'0 0.0
2018-Feb-13 05:57N 41°39' E 140°32'0 0.1
2018-Feb-13 05:21N 41°39' E 140°32'0 0.1
2018-Feb-13 04:57N 41°39' E 140°32'0 0.0
2018-Feb-13 04:27N 41°39' E 140°32'0 0.0
2018-Feb-13 03:54N 41°39' E 140°32'0 0.0
2018-Feb-13 03:30N 41°39' E 140°32'0 0.0
2018-Feb-13 03:00N 41°39' E 140°32'0 0.1
2018-Feb-13 02:24N 41°39' E 140°32'0 0.0
2018-Feb-13 02:00N 41°39' E 140°32'0 0.0
2018-Feb-13 01:24N 41°39' E 140°32'0 0.0
2018-Feb-13 00:57N 41°39' E 140°32'0 0.0
2018-Feb-13 00:29N 41°39' E 140°32'0 0.0
2018-Feb-13 00:00N 41°39' E 140°32'0 0.0
2018-Feb-12 23:29N 41°39' E 140°32'0 0.0
2018-Feb-12 23:00N 41°39' E 140°32'0 0.0
2018-Feb-12 22:29N 41°39' E 140°32'0 0.0
2018-Feb-12 21:59N 41°39' E 140°32'0 0.0
2018-Feb-12 21:27N 41°39' E 140°32'0 0.0
2018-Feb-12 20:59N 41°39' E 140°32'0 0.0
2018-Feb-12 20:28N 41°39' E 140°32'0 0.0
2018-Feb-12 20:00N 41°39' E 140°32'0 0.0
2018-Feb-12 19:30N 41°39' E 140°32'0 0.0
2018-Feb-12 18:58N 41°39' E 140°32'0 0.0
2018-Feb-12 18:30N 41°39' E 140°32'0 0.0
2018-Feb-12 18:00N 41°39' E 140°32'0 0.0
2018-Feb-12 17:30N 41°39' E 140°32'0 0.0
2018-Feb-12 17:00N 41°39' E 140°32'0 0.0
2018-Feb-12 16:30N 41°39' E 140°32'0 0.0
2018-Feb-12 15:59N 41°39' E 140°32'0 0.0
2018-Feb-12 15:30N 41°39' E 140°32'0 0.0
2018-Feb-12 15:00N 41°39' E 140°32'0 0.0
2018-Feb-12 14:30N 41°39' E 140°32'0 0.1
2018-Feb-12 14:00N 41°39' E 140°32'0 0.0
2018-Feb-12 13:29N 41°39' E 140°32'0 0.1
2018-Feb-12 13:01N 41°39' E 140°32'0 0.0
2018-Feb-12 12:29N 41°39' E 140°32'0 0.0
2018-Feb-12 12:00N 41°39' E 140°32'0 0.0
2018-Feb-12 11:30N 41°39' E 140°32'0 0.0
2018-Feb-12 11:00N 41°39' E 140°32'0 0.0
2018-Feb-12 10:29N 41°39' E 140°32'0 0.0
2018-Feb-12 10:00N 41°39' E 140°32'0 0.0
2018-Feb-12 09:27N 41°39' E 140°32'0 0.1
2018-Feb-12 08:54N 41°39' E 140°32'0 0.0
2018-Feb-12 08:29N 41°39' E 140°32'0 0.0
2018-Feb-12 07:56N 41°39' E 140°32'0 0.0
2018-Feb-12 07:19N 41°39' E 140°32'0 0.0
2018-Feb-12 06:59N 41°39' E 140°32'0 0.0
2018-Feb-12 06:15N 41°39' E 140°32'0 0.0
2018-Feb-12 05:50N 41°39' E 140°32'0 0.0
2018-Feb-12 05:30N 41°39' E 140°32'0 0.0
2018-Feb-12 04:51N 41°39' E 140°32'0 0.0
2018-Feb-12 04:12N 41°39' E 140°32'0 0.0
2018-Feb-12 03:49N 41°39' E 140°32'0 0.1
2018-Feb-12 03:26N 41°39' E 140°32'0 0.0
2018-Feb-12 02:58N 41°39' E 140°32'0 0.0
2018-Feb-12 02:29N 41°39' E 140°32'0 0.0
2018-Feb-12 01:43N 41°39' E 140°32'0 0.0
2018-Feb-12 01:30N 41°39' E 140°32'0 0.0
2018-Feb-12 00:58N 41°39' E 140°32'0 0.0
2018-Feb-12 00:28N 41°39' E 140°32'0 0.0
2018-Feb-11 23:53N 41°39' E 140°32'0 0.1
2018-Feb-11 23:29N 41°39' E 140°32'0 0.1
2018-Feb-11 23:00N 41°39' E 140°32'0 0.0
2018-Feb-11 22:30N 41°39' E 140°32'0 0.0
2018-Feb-11 21:56N 41°39' E 140°32'0 0.0
2018-Feb-11 21:25N 41°39' E 140°32'0 0.0
2018-Feb-11 21:00N 41°39' E 140°32'0 0.0
2018-Feb-11 20:30N 41°39' E 140°32'2 4.9
2018-Feb-11 20:00N 41°39' E 140°35'612.0
2018-Feb-11 19:30N 41°39' E 140°43'612.3
2018-Feb-11 19:00N 41°40' E 140°51'510.6
2018-Feb-11 18:31N 41°40' E 140°58'611.1
2018-Feb-11 18:00N 41°42' E 141°05'713.5
2018-Feb-11 17:30N 41°46' E 141°13'15 1.0
2018-Feb-11 02:19N 41°59' E 141°20'413.8
2018-Feb-11 02:00N 41°55' E 141°18'713.8
2018-Feb-11 01:30N 41°49' E 141°15'712.9
2018-Feb-11 01:00N 41°44' E 141°09'713.7
2018-Feb-11 00:30N 41°41' E 141°02'714.8
2018-Feb-11 00:00N 41°37' E 140°53'714.8
2018-Feb-10 23:30N 41°33' E 140°45'815.2
2018-Feb-10 23:00N 41°28' E 140°37'815.5
2018-Feb-10 22:30N 41°24' E 140°28'  

Dump ship's entire track history